createdAt,value
2019-03-01T00:00:50.230Z,49.80
2019-03-01T00:01:50.239Z,49.20
2019-03-01T00:02:50.226Z,49.60
2019-03-01T00:03:50.238Z,50.10
2019-03-01T00:04:50.201Z,49.30
2019-03-01T00:05:50.158Z,51.10
2019-03-01T00:06:50.132Z,51.40
2019-03-01T00:07:50.193Z,50.00
2019-03-01T00:08:50.170Z,51.10
2019-03-01T00:09:50.079Z,50.80
2019-03-01T00:10:50.130Z,51.30
2019-03-01T00:11:50.079Z,51.10
2019-03-01T00:12:50.153Z,50.00
2019-03-01T00:13:50.087Z,49.20
2019-03-01T00:14:50.103Z,48.90
2019-03-01T00:15:50.041Z,47.30
2019-03-01T00:16:50.035Z,40.80
2019-03-01T00:17:50.017Z,44.70
2019-03-01T00:18:50.012Z,41.10
2019-03-01T00:19:50.028Z,44.10
2019-03-01T00:20:50.590Z,42.60
2019-03-01T00:21:49.962Z,42.40
2019-03-01T00:22:50.043Z,44.10
2019-03-01T00:23:49.947Z,39.40
2019-03-01T00:24:49.984Z,40.50
2019-03-01T00:25:49.978Z,42.20
2019-03-01T00:26:49.917Z,41.10
2019-03-01T00:27:49.896Z,39.20
2019-03-01T00:28:49.930Z,39.20
2019-03-01T00:29:49.902Z,42.10
2019-03-01T00:30:49.907Z,41.30
2019-03-01T00:31:49.892Z,40.90
2019-03-01T00:32:49.881Z,40.40
2019-03-01T00:33:49.837Z,42.70
2019-03-01T00:34:49.943Z,40.70
2019-03-01T00:35:49.855Z,39.80
2019-03-01T00:36:49.808Z,42.90
2019-03-01T00:37:49.836Z,41.70
2019-03-01T00:38:50.559Z,41.00
2019-03-01T00:39:49.795Z,39.30
2019-03-01T00:40:49.793Z,38.70
2019-03-01T00:41:49.847Z,37.80
2019-03-01T00:42:49.780Z,40.00
2019-03-01T00:43:49.755Z,43.10
2019-03-01T00:44:49.763Z,42.00
2019-03-01T00:45:49.763Z,42.10
2019-03-01T00:46:49.746Z,44.10
2019-03-01T00:47:49.700Z,41.40
2019-03-01T00:48:49.705Z,41.60
2019-03-01T00:49:49.671Z,39.80
2019-03-01T00:50:49.689Z,40.50
2019-03-01T00:51:49.675Z,38.80
2019-03-01T00:52:49.638Z,38.80
2019-03-01T00:53:49.629Z,39.50
2019-03-01T00:54:49.627Z,39.40
2019-03-01T00:55:49.664Z,39.80
2019-03-01T00:56:49.654Z,41.60
2019-03-01T00:57:49.574Z,36.80
2019-03-01T00:58:49.589Z,43.20
2019-03-01T00:59:49.566Z,39.20
2019-03-01T01:00:49.603Z,44.60
2019-03-01T01:01:49.581Z,41.40
2019-03-01T01:02:49.527Z,44.30
2019-03-01T01:03:49.538Z,42.70
2019-03-01T01:04:49.566Z,41.50
2019-03-01T01:05:49.566Z,44.10
2019-03-01T01:06:49.497Z,45.20
2019-03-01T01:07:49.481Z,50.10
2019-03-01T01:08:49.490Z,50.40
2019-03-01T01:09:49.496Z,52.10
2019-03-01T01:10:49.493Z,52.90
2019-03-01T01:11:49.481Z,50.40
2019-03-01T01:12:49.427Z,51.70
2019-03-01T01:13:49.454Z,56.50
2019-03-01T01:14:49.443Z,55.40
2019-03-01T01:15:49.413Z,53.70
2019-03-01T01:16:49.469Z,56.50
2019-03-01T01:17:49.459Z,54.30
2019-03-01T01:18:49.405Z,55.10
2019-03-01T01:19:49.494Z,51.80
2019-03-01T01:20:49.396Z,53.70
2019-03-01T01:21:49.405Z,52.50
2019-03-01T01:22:49.392Z,56.40
2019-03-01T01:23:49.377Z,57.30
2019-03-01T01:24:49.368Z,54.20
2019-03-01T01:25:49.315Z,58.90
2019-03-01T01:26:49.334Z,55.40
2019-03-01T01:27:49.316Z,53.10
2019-03-01T01:28:49.334Z,53.40
2019-03-01T01:29:49.293Z,52.70
2019-03-01T01:30:49.233Z,53.80
2019-03-01T01:31:49.253Z,49.90
2019-03-01T01:32:49.269Z,53.30
2019-03-01T01:33:49.353Z,52.70
2019-03-01T01:34:49.271Z,55.00
2019-03-01T01:35:49.392Z,55.00
2019-03-01T01:36:49.171Z,54.60
2019-03-01T01:37:49.241Z,54.30
2019-03-01T01:38:49.186Z,55.20
2019-03-01T01:39:49.164Z,54.20
2019-03-01T01:40:49.176Z,54.50
2019-03-01T01:41:49.228Z,53.80
2019-03-01T01:42:49.228Z,53.40
2019-03-01T01:43:49.237Z,54.30
2019-03-01T01:44:49.142Z,52.00
2019-03-01T01:45:49.155Z,54.60
2019-03-01T01:46:49.133Z,52.00
2019-03-01T01:47:49.071Z,55.00
2019-03-01T01:48:49.123Z,56.60
2019-03-01T01:49:49.047Z,54.80
2019-03-01T01:50:49.020Z,56.00
2019-03-01T01:51:49.570Z,53.80
2019-03-01T01:52:49.005Z,54.10
2019-03-01T01:53:49.009Z,54.80
2019-03-01T01:54:48.997Z,56.00
2019-03-01T01:55:48.978Z,55.10
2019-03-01T01:56:48.989Z,57.50
2019-03-01T01:57:48.986Z,54.80
2019-03-01T01:58:48.976Z,55.40
2019-03-01T01:59:48.923Z,54.40
2019-03-01T02:00:49.003Z,52.30
2019-03-01T02:01:48.942Z,54.70
2019-03-01T02:02:48.929Z,53.20
2019-03-01T02:03:48.935Z,55.50
2019-03-01T02:04:48.929Z,55.30
2019-03-01T02:05:49.592Z,56.80
2019-03-01T02:06:48.875Z,57.60
2019-03-01T02:07:48.843Z,56.30
2019-03-01T02:08:48.880Z,56.00
2019-03-01T02:09:48.819Z,55.80
2019-03-01T02:10:48.865Z,54.10
2019-03-01T02:11:48.865Z,56.40
2019-03-01T02:12:49.572Z,53.10
2019-03-01T02:13:48.785Z,55.60
2019-03-01T02:14:48.857Z,56.10
2019-03-01T02:15:48.775Z,57.80
2019-03-01T02:16:48.769Z,56.60
2019-03-01T02:17:48.763Z,53.80
2019-03-01T02:18:57.246Z,56.00
2019-03-01T02:19:49.738Z,56.10
2019-03-01T02:20:48.722Z,57.20
2019-03-01T02:21:48.714Z,58.90
2019-03-01T02:22:48.745Z,56.20
2019-03-01T02:23:48.704Z,56.30
2019-03-01T02:24:49.572Z,56.20
2019-03-01T02:25:48.745Z,58.10
2019-03-01T02:26:48.649Z,52.80
2019-03-01T02:27:48.724Z,58.00
2019-03-01T02:28:48.687Z,58.20
2019-03-01T02:29:48.698Z,58.20
2019-03-01T02:30:48.645Z,56.60
2019-03-01T02:31:48.591Z,57.20
2019-03-01T02:32:48.607Z,60.00
2019-03-01T02:33:48.644Z,55.00
2019-03-01T02:34:48.564Z,56.30
2019-03-01T02:35:48.605Z,56.80
2019-03-01T02:36:48.703Z,56.20
2019-03-01T02:37:48.564Z,62.40
2019-03-01T02:38:48.579Z,61.20
2019-03-01T02:39:48.511Z,62.00
2019-03-01T02:40:48.506Z,59.30
2019-03-01T02:41:48.502Z,59.70
2019-03-01T02:42:48.568Z,57.20
2019-03-01T02:43:48.514Z,59.50
2019-03-01T02:44:48.454Z,60.40
2019-03-01T02:45:48.491Z,59.70
2019-03-01T02:46:48.528Z,58.70
2019-03-01T02:47:48.454Z,60.40
2019-03-01T02:48:48.514Z,61.60
2019-03-01T02:49:48.448Z,57.10
2019-03-01T02:50:48.466Z,58.20
2019-03-01T02:51:48.495Z,58.50
2019-03-01T02:52:48.411Z,57.20
2019-03-01T02:53:48.514Z,57.30
2019-03-01T02:54:48.364Z,59.50
2019-03-01T02:55:49.084Z,55.80
2019-03-01T02:56:48.402Z,59.00
2019-03-01T02:57:48.382Z,62.00
2019-03-01T02:58:48.402Z,62.10
2019-03-01T02:59:48.352Z,59.40
2019-03-01T03:00:48.327Z,62.30
2019-03-01T03:01:48.333Z,61.00
2019-03-01T03:02:48.351Z,59.00
2019-03-01T03:03:48.296Z,61.60
2019-03-01T03:04:48.494Z,70.20
2019-03-01T03:05:48.283Z,63.10
2019-03-01T03:06:48.264Z,63.90
2019-03-01T03:07:48.266Z,62.90
2019-03-01T03:08:48.282Z,61.90
2019-03-01T03:09:48.235Z,59.00
2019-03-01T03:10:48.280Z,59.40
2019-03-01T03:11:48.205Z,60.20
2019-03-01T03:12:48.209Z,58.40
2019-03-01T03:13:48.222Z,57.00
2019-03-01T03:14:48.197Z,61.80
2019-03-01T03:15:48.196Z,90.20
2019-03-01T03:16:48.155Z,167.60
2019-03-01T03:17:48.142Z,191.70
2019-03-01T03:18:48.133Z,218.60
2019-03-01T03:19:48.117Z,185.10
2019-03-01T03:20:48.158Z,236.80
2019-03-01T03:21:48.126Z,260.50
2019-03-01T03:22:48.085Z,217.80
2019-03-01T03:23:48.073Z,171.70
2019-03-01T03:24:48.088Z,110.50
2019-03-01T03:25:48.097Z,105.90
2019-03-01T03:26:48.689Z,76.10
2019-03-01T03:27:48.036Z,83.70
2019-03-01T03:28:48.079Z,68.40
2019-03-01T03:29:48.009Z,71.30
2019-03-01T03:30:48.026Z,70.30
2019-03-01T03:31:48.075Z,68.50
2019-03-01T03:32:48.206Z,69.60
2019-03-01T03:33:47.956Z,64.00
2019-03-01T03:34:47.971Z,64.80
2019-03-01T03:35:47.955Z,67.30
2019-03-01T03:36:47.972Z,62.80
2019-03-01T03:37:47.906Z,64.30
2019-03-01T03:38:47.925Z,61.10
2019-03-01T03:39:47.892Z,61.30
2019-03-01T03:40:47.903Z,61.80
2019-03-01T03:41:47.870Z,60.90
2019-03-01T03:42:47.915Z,61.00
2019-03-01T03:43:47.843Z,54.70
2019-03-01T03:44:47.850Z,55.30
2019-03-01T03:45:47.829Z,54.00
2019-03-01T03:46:47.828Z,55.90
2019-03-01T03:47:47.812Z,57.00
2019-03-01T03:48:47.810Z,60.50
2019-03-01T03:49:47.780Z,55.30
2019-03-01T03:50:47.773Z,57.50
2019-03-01T03:51:47.759Z,59.10
2019-03-01T03:52:47.784Z,57.70
2019-03-01T03:53:47.793Z,59.00
2019-03-01T03:54:47.778Z,54.90
2019-03-01T03:55:47.747Z,54.80
2019-03-01T03:56:47.711Z,56.10
2019-03-01T03:57:47.754Z,56.20
2019-03-01T03:58:47.747Z,56.30
2019-03-01T03:59:47.746Z,55.20
2019-03-01T04:00:47.671Z,59.00
2019-03-01T04:01:47.664Z,58.60
2019-03-01T04:02:47.689Z,56.00
2019-03-01T04:03:48.591Z,58.00
2019-03-01T04:04:47.660Z,57.10
2019-03-01T04:05:47.643Z,53.70
2019-03-01T04:06:47.623Z,57.60
2019-03-01T04:07:47.669Z,57.30
2019-03-01T04:08:47.591Z,56.30
2019-03-01T04:09:47.608Z,58.20
2019-03-01T04:10:47.587Z,56.00
2019-03-01T04:11:47.550Z,55.20
2019-03-01T04:12:47.533Z,58.90
2019-03-01T04:13:47.556Z,59.60
2019-03-01T04:14:47.564Z,54.90
2019-03-01T04:15:47.573Z,57.10
2019-03-01T04:16:47.506Z,53.90
2019-03-01T04:17:47.522Z,54.80
2019-03-01T04:18:47.521Z,54.40
2019-03-01T04:19:47.537Z,56.90
2019-03-01T04:20:47.482Z,56.60
2019-03-01T04:21:47.475Z,58.10
2019-03-01T04:22:47.467Z,58.20
2019-03-01T04:23:47.464Z,54.70
2019-03-01T04:24:47.466Z,58.30
2019-03-01T04:25:47.436Z,56.00
2019-03-01T04:26:47.423Z,56.00
2019-03-01T04:27:47.398Z,59.60
2019-03-01T04:28:47.417Z,54.80
2019-03-01T04:29:47.381Z,57.90
2019-03-01T04:30:47.353Z,59.00
2019-03-01T04:31:47.379Z,56.30
2019-03-01T04:32:47.348Z,58.60
2019-03-01T04:33:47.395Z,60.00
2019-03-01T04:34:47.345Z,58.60
2019-03-01T04:35:47.335Z,56.50
2019-03-01T04:36:47.314Z,57.70
2019-03-01T04:37:47.309Z,58.70
2019-03-01T04:38:47.320Z,59.40
2019-03-01T04:39:47.286Z,59.10
2019-03-01T04:40:47.292Z,59.50
2019-03-01T04:41:47.270Z,58.20
2019-03-01T04:42:47.291Z,58.30
2019-03-01T04:43:47.238Z,59.40
2019-03-01T04:44:47.228Z,58.90
2019-03-01T04:45:47.236Z,56.90
2019-03-01T04:46:47.239Z,58.80
2019-03-01T04:47:47.193Z,57.80
2019-03-01T04:48:47.188Z,57.00
2019-03-01T04:49:47.198Z,53.70
2019-03-01T04:50:47.163Z,55.90
2019-03-01T04:51:47.187Z,56.50
2019-03-01T04:52:47.165Z,53.40
2019-03-01T04:53:47.182Z,54.10
2019-03-01T04:54:47.146Z,56.30
2019-03-01T04:55:47.106Z,57.10
2019-03-01T04:56:47.180Z,56.20
2019-03-01T04:57:47.074Z,53.40
2019-03-01T04:58:47.115Z,55.60
2019-03-01T04:59:47.078Z,55.40
2019-03-01T05:00:47.070Z,56.40
2019-03-01T05:01:47.039Z,57.10
2019-03-01T05:02:47.067Z,55.60
2019-03-01T05:03:47.012Z,54.00
2019-03-01T05:04:47.109Z,56.40
2019-03-01T05:05:47.050Z,56.10
2019-03-01T05:06:47.152Z,55.50
2019-03-01T05:07:47.095Z,58.40
2019-03-01T05:08:46.976Z,55.70
2019-03-01T05:09:47.071Z,55.00
2019-03-01T05:10:47.027Z,56.30
2019-03-01T05:11:46.953Z,56.50
2019-03-01T05:12:46.988Z,57.70
2019-03-01T05:13:46.917Z,56.70
2019-03-01T05:14:47.001Z,60.00
2019-03-01T05:15:46.922Z,60.10
2019-03-01T05:16:46.905Z,57.20
2019-03-01T05:17:46.862Z,59.50
2019-03-01T05:18:46.909Z,57.70
2019-03-01T05:19:46.868Z,60.50
2019-03-01T05:20:46.850Z,57.60
2019-03-01T05:21:46.898Z,56.50
2019-03-01T05:22:46.872Z,55.70
2019-03-01T05:23:46.834Z,57.00
2019-03-01T05:24:46.826Z,56.50
2019-03-01T05:25:47.723Z,57.40
2019-03-01T05:26:46.851Z,59.80
2019-03-01T05:27:46.782Z,60.40
2019-03-01T05:28:47.601Z,60.50
2019-03-01T05:29:46.757Z,59.50
2019-03-01T05:30:46.719Z,58.70
2019-03-01T05:31:46.729Z,57.90
2019-03-01T05:32:46.724Z,56.00
2019-03-01T05:33:46.759Z,57.60
2019-03-01T05:34:46.715Z,55.20
2019-03-01T05:35:46.714Z,57.20
2019-03-01T05:36:46.687Z,58.70
2019-03-01T05:37:46.797Z,57.40
2019-03-01T05:38:46.664Z,57.10
2019-03-01T05:39:46.659Z,60.20
2019-03-01T05:40:46.652Z,59.90
2019-03-01T05:41:46.841Z,58.00
2019-03-01T05:42:47.666Z,59.20
2019-03-01T05:43:46.616Z,61.40
2019-03-01T05:44:46.588Z,57.90
2019-03-01T05:45:46.581Z,58.40
2019-03-01T05:46:46.592Z,62.20
2019-03-01T05:47:46.553Z,59.90
2019-03-01T05:48:46.680Z,60.40
2019-03-01T05:49:46.538Z,63.10
2019-03-01T05:50:46.528Z,59.30
2019-03-01T05:51:46.537Z,60.90
2019-03-01T05:52:46.528Z,64.90
2019-03-01T05:53:46.494Z,61.70
2019-03-01T05:54:46.534Z,62.30
2019-03-01T05:55:46.468Z,63.70
2019-03-01T05:56:46.506Z,64.10
2019-03-01T05:57:46.474Z,66.80
2019-03-01T05:58:46.455Z,67.40
2019-03-01T05:59:46.478Z,66.20
2019-03-01T06:00:46.498Z,68.40
2019-03-01T06:01:46.492Z,70.40
2019-03-01T06:02:46.691Z,66.20
2019-03-01T06:03:46.401Z,61.30
2019-03-01T06:04:46.392Z,66.00
2019-03-01T06:05:46.403Z,71.60
2019-03-01T06:06:46.409Z,73.30
2019-03-01T06:07:46.350Z,74.50
2019-03-01T06:08:46.351Z,75.10
2019-03-01T06:09:46.354Z,78.00
2019-03-01T06:10:46.348Z,75.20
2019-03-01T06:11:46.296Z,73.90
2019-03-01T06:12:46.308Z,75.00
2019-03-01T06:13:46.288Z,73.70
2019-03-01T06:14:46.305Z,70.00
2019-03-01T06:15:46.269Z,77.50
2019-03-01T06:16:46.260Z,77.70
2019-03-01T06:17:46.295Z,76.00
2019-03-01T06:18:46.264Z,71.60
2019-03-01T06:19:46.315Z,73.40
2019-03-01T06:20:46.372Z,72.40
2019-03-01T06:21:47.943Z,74.00
2019-03-01T06:22:46.182Z,75.90
2019-03-01T06:23:46.166Z,80.30
2019-03-01T06:24:46.182Z,79.20
2019-03-01T06:25:46.184Z,83.80
2019-03-01T06:26:46.182Z,80.60
2019-03-01T06:27:46.140Z,82.40
2019-03-01T06:28:46.123Z,83.10
2019-03-01T06:29:46.109Z,74.70
2019-03-01T06:30:51.851Z,79.30
2019-03-01T06:31:47.101Z,79.90
2019-03-01T06:32:46.147Z,77.10
2019-03-01T06:33:46.059Z,81.00
2019-03-01T06:34:46.092Z,80.10
2019-03-01T06:35:46.059Z,80.40
2019-03-01T06:36:46.026Z,80.90
2019-03-01T06:37:46.071Z,72.30
2019-03-01T06:38:46.016Z,75.70
2019-03-01T06:39:46.010Z,77.30
2019-03-01T06:40:45.988Z,77.60
2019-03-01T06:41:46.026Z,76.10
2019-03-01T06:42:45.975Z,77.80
2019-03-01T06:43:45.981Z,75.30
2019-03-01T06:44:45.950Z,74.30
2019-03-01T06:45:45.956Z,72.00
2019-03-01T06:46:45.918Z,72.00
2019-03-01T06:47:45.947Z,69.90
2019-03-01T06:48:46.004Z,72.10
2019-03-01T06:49:45.928Z,77.80
2019-03-01T06:50:45.915Z,76.00
2019-03-01T06:51:45.921Z,70.50
2019-03-01T06:52:45.888Z,83.70
2019-03-01T06:53:45.870Z,85.10
2019-03-01T06:54:45.864Z,79.90
2019-03-01T06:55:45.876Z,83.40
2019-03-01T06:56:45.827Z,77.90
2019-03-01T06:57:45.817Z,84.90
2019-03-01T06:58:45.814Z,81.90
2019-03-01T06:59:45.914Z,90.40
2019-03-01T07:00:50.230Z,94.20
2019-03-01T07:01:45.796Z,94.50
2019-03-01T07:02:45.770Z,101.80
2019-03-01T07:03:45.742Z,86.10
2019-03-01T07:04:45.746Z,91.00
2019-03-01T07:05:45.734Z,92.90
2019-03-01T07:06:45.731Z,95.60
2019-03-01T07:07:45.714Z,90.40
2019-03-01T07:08:45.698Z,86.90
2019-03-01T07:09:45.757Z,83.80
2019-03-01T07:10:45.690Z,96.10
2019-03-01T07:11:45.698Z,87.60
2019-03-01T07:12:45.667Z,92.10
2019-03-01T07:13:45.666Z,96.10
2019-03-01T07:14:45.663Z,93.20
2019-03-01T07:15:45.618Z,88.40
2019-03-01T07:16:45.662Z,92.00
2019-03-01T07:17:45.917Z,93.20
2019-03-01T07:18:45.607Z,96.50
2019-03-01T07:19:46.404Z,91.90
2019-03-01T07:20:45.591Z,99.70
2019-03-01T07:21:45.585Z,107.90
2019-03-01T07:22:45.569Z,104.60
2019-03-01T07:23:45.525Z,99.80
2019-03-01T07:24:45.532Z,95.90
2019-03-01T07:25:45.524Z,101.80
2019-03-01T07:26:45.532Z,115.70
2019-03-01T07:27:45.545Z,114.90
2019-03-01T07:28:45.519Z,110.70
2019-03-01T07:29:45.552Z,105.40
2019-03-01T07:30:45.486Z,116.70
2019-03-01T07:31:45.497Z,121.10
2019-03-01T07:32:45.463Z,109.20
2019-03-01T07:33:45.441Z,115.30
2019-03-01T07:34:45.433Z,114.20
2019-03-01T07:35:46.316Z,114.20
2019-03-01T07:36:45.390Z,112.70
2019-03-01T07:37:45.454Z,105.50
2019-03-01T07:38:46.202Z,107.00
2019-03-01T07:39:45.389Z,107.50
2019-03-01T07:40:45.361Z,103.40
2019-03-01T07:41:45.354Z,112.60
2019-03-01T07:42:45.360Z,115.60
2019-03-01T07:43:45.382Z,111.30
2019-03-01T07:44:45.403Z,108.10
2019-03-01T07:45:45.314Z,108.80
2019-03-01T07:46:52.571Z,107.50
2019-03-01T07:47:46.635Z,109.80
2019-03-01T07:48:45.278Z,121.20
2019-03-01T07:49:45.267Z,108.80
2019-03-01T07:50:45.316Z,113.60
2019-03-01T07:51:45.252Z,114.30
2019-03-01T07:52:45.235Z,109.20
2019-03-01T07:53:45.267Z,103.90
2019-03-01T07:54:45.231Z,104.30
2019-03-01T07:55:46.661Z,100.50
2019-03-01T07:56:45.234Z,99.50
2019-03-01T07:57:46.519Z,95.90
2019-03-01T07:58:46.125Z,101.00
2019-03-01T07:59:45.180Z,101.90
2019-03-01T08:00:46.753Z,106.10
2019-03-01T08:01:46.133Z,101.20
2019-03-01T08:02:45.844Z,105.20
2019-03-01T08:03:49.972Z,118.70
2019-03-01T08:04:46.259Z,112.10
2019-03-01T08:05:45.114Z,112.20
2019-03-01T08:06:45.607Z,108.70
2019-03-01T08:07:55.353Z,109.60
2019-03-01T08:08:46.063Z,106.30
2019-03-01T08:09:45.687Z,106.70
2019-03-01T08:10:45.177Z,112.40
2019-03-01T08:11:45.037Z,105.70
2019-03-01T08:12:47.287Z,106.70
2019-03-01T08:13:45.085Z,107.50
2019-03-01T08:14:45.194Z,113.20
2019-03-01T08:15:45.973Z,112.50
2019-03-01T08:16:45.065Z,112.50
2019-03-01T08:17:44.982Z,112.10
2019-03-01T08:18:45.255Z,107.70
2019-03-01T08:19:45.741Z,110.50
2019-03-01T08:20:44.952Z,110.50
2019-03-01T08:21:46.321Z,108.80
2019-03-01T08:22:48.485Z,106.30
2019-03-01T08:23:44.936Z,107.70
2019-03-01T08:24:46.666Z,104.30
2019-03-01T08:25:44.896Z,104.00
2019-03-01T08:26:45.016Z,101.50
2019-03-01T08:27:46.442Z,99.90
2019-03-01T08:28:44.957Z,101.80
2019-03-01T08:29:44.920Z,117.60
2019-03-01T08:30:45.771Z,115.30
2019-03-01T08:31:44.841Z,114.90
2019-03-01T08:32:44.853Z,110.80
2019-03-01T08:33:44.882Z,104.20
2019-03-01T08:34:44.789Z,105.60
2019-03-01T08:35:44.809Z,110.40
2019-03-01T08:36:44.782Z,113.70
2019-03-01T08:37:44.775Z,106.60
2019-03-01T08:38:44.775Z,102.90
2019-03-01T08:39:44.732Z,106.40
2019-03-01T08:40:46.621Z,103.30
2019-03-01T08:41:44.745Z,110.60
2019-03-01T08:42:44.691Z,104.70
2019-03-01T08:43:47.824Z,111.60
2019-03-01T08:44:44.680Z,113.70
2019-03-01T08:45:44.722Z,115.60
2019-03-01T08:46:45.436Z,118.90
2019-03-01T08:47:44.792Z,123.50
2019-03-01T08:48:44.746Z,124.90
2019-03-01T08:49:44.760Z,118.90
2019-03-01T08:50:44.907Z,113.30
2019-03-01T08:51:45.454Z,111.60
2019-03-01T08:52:44.681Z,111.10
2019-03-01T08:53:44.748Z,111.10
2019-03-01T08:54:44.648Z,105.00
2019-03-01T08:55:44.592Z,106.50
2019-03-01T08:56:46.379Z,104.40
2019-03-01T08:57:45.554Z,111.30
2019-03-01T08:58:44.533Z,108.10
2019-03-01T08:59:44.521Z,110.80
2019-03-01T09:00:44.594Z,109.70
2019-03-01T09:01:45.003Z,108.80
2019-03-01T09:02:44.485Z,108.50
2019-03-01T09:03:44.481Z,99.50
2019-03-01T09:04:50.849Z,103.00
2019-03-01T09:05:45.479Z,105.90
2019-03-01T09:06:44.463Z,105.30
2019-03-01T09:07:44.462Z,102.40
2019-03-01T09:08:46.230Z,107.20
2019-03-01T09:09:44.471Z,111.80
2019-03-01T09:10:44.409Z,111.20
2019-03-01T09:11:45.360Z,106.30
2019-03-01T09:12:44.386Z,109.50
2019-03-01T09:13:44.396Z,100.80
2019-03-01T09:14:44.357Z,104.80
2019-03-01T09:15:46.055Z,110.30
2019-03-01T09:16:44.354Z,102.80
2019-03-01T09:17:44.350Z,100.50
2019-03-01T09:18:46.644Z,102.30
2019-03-01T09:19:45.455Z,105.50
2019-03-01T09:20:44.322Z,114.00
2019-03-01T09:21:49.146Z,109.90
2019-03-01T09:22:45.285Z,114.50
2019-03-01T09:23:44.284Z,110.70
2019-03-01T09:24:44.288Z,103.50
2019-03-01T09:25:44.675Z,105.40
2019-03-01T09:26:44.265Z,102.60
2019-03-01T09:27:44.254Z,104.20
2019-03-01T09:28:44.245Z,101.40
2019-03-01T09:29:44.264Z,104.20
2019-03-01T09:30:44.434Z,110.80
2019-03-01T09:31:44.339Z,106.20
2019-03-01T09:32:44.178Z,105.70
2019-03-01T09:33:44.150Z,104.40
2019-03-01T09:34:44.327Z,107.40
2019-03-01T09:35:44.175Z,98.50
2019-03-01T09:36:44.148Z,102.10
2019-03-01T09:37:44.119Z,102.90
2019-03-01T09:38:44.107Z,112.10
2019-03-01T09:39:44.105Z,105.10
2019-03-01T09:40:44.086Z,105.20
2019-03-01T09:41:44.077Z,102.50
2019-03-01T09:42:44.080Z,98.80
2019-03-01T09:43:44.051Z,96.60
2019-03-01T09:44:44.037Z,99.80
2019-03-01T09:45:45.745Z,104.30
2019-03-01T09:46:44.015Z,101.70
2019-03-01T09:47:44.039Z,109.80
2019-03-01T09:48:45.605Z,105.00
2019-03-01T09:49:45.003Z,104.00
2019-03-01T09:50:43.995Z,114.10
2019-03-01T09:51:48.427Z,109.40
2019-03-01T09:52:46.669Z,111.40
2019-03-01T09:53:43.965Z,113.20
2019-03-01T09:54:43.965Z,115.40
2019-03-01T09:55:43.956Z,116.50
2019-03-01T09:56:43.942Z,116.10
2019-03-01T09:57:43.923Z,116.70
2019-03-01T09:58:43.918Z,116.70
2019-03-01T09:59:43.879Z,125.90
2019-03-01T10:00:43.898Z,124.10
2019-03-01T10:01:43.914Z,119.20
2019-03-01T10:02:43.850Z,117.90
2019-03-01T10:03:43.849Z,120.90
2019-03-01T10:04:43.835Z,120.40
2019-03-01T10:05:43.846Z,118.70
2019-03-01T10:06:43.819Z,115.40
2019-03-01T10:07:43.827Z,122.70
2019-03-01T10:08:43.776Z,123.50
2019-03-01T10:09:43.782Z,109.00
2019-03-01T10:10:43.776Z,118.80
2019-03-01T10:11:43.772Z,121.80
2019-03-01T10:12:43.765Z,115.50
2019-03-01T10:13:43.792Z,116.10
2019-03-01T10:14:43.722Z,113.40
2019-03-01T10:15:43.720Z,124.60
2019-03-01T10:16:43.699Z,121.30
2019-03-01T10:17:43.686Z,116.60
2019-03-01T10:18:43.684Z,110.90
2019-03-01T10:19:43.705Z,108.50
2019-03-01T10:20:43.658Z,109.80
2019-03-01T10:21:43.670Z,120.10
2019-03-01T10:22:43.659Z,122.30
2019-03-01T10:23:43.647Z,125.50
2019-03-01T10:24:43.637Z,125.20
2019-03-01T10:25:43.607Z,117.70
2019-03-01T10:26:43.593Z,118.30
2019-03-01T10:27:43.596Z,115.70
2019-03-01T10:28:43.590Z,122.70
2019-03-01T10:29:43.579Z,119.50
2019-03-01T10:30:43.565Z,123.80
2019-03-01T10:31:43.628Z,129.10
2019-03-01T10:32:43.559Z,124.00
2019-03-01T10:33:43.534Z,129.50
2019-03-01T10:34:43.523Z,120.70
2019-03-01T10:35:43.515Z,134.20
2019-03-01T10:36:43.496Z,127.20
2019-03-01T10:37:43.653Z,137.40
2019-03-01T10:38:43.470Z,125.90
2019-03-01T10:39:43.508Z,139.10
2019-03-01T10:40:43.475Z,132.80
2019-03-01T10:41:43.462Z,123.00
2019-03-01T10:42:43.468Z,126.90
2019-03-01T10:43:43.433Z,136.10
2019-03-01T10:44:43.436Z,126.20
2019-03-01T10:45:43.445Z,131.60
2019-03-01T10:46:43.404Z,131.10
2019-03-01T10:47:43.543Z,127.80
2019-03-01T10:48:43.388Z,123.30
2019-03-01T10:49:43.368Z,115.20
2019-03-01T10:50:43.379Z,112.20
2019-03-01T10:51:43.369Z,109.00
2019-03-01T10:52:43.363Z,101.10
2019-03-01T10:53:43.335Z,103.20
2019-03-01T10:54:43.327Z,105.50
2019-03-01T10:55:43.307Z,107.70
2019-03-01T10:56:43.309Z,101.10
2019-03-01T10:57:43.282Z,103.00
2019-03-01T10:58:43.285Z,101.40
2019-03-01T10:59:43.313Z,102.10
2019-03-01T11:00:43.248Z,108.00
2019-03-01T11:01:43.414Z,100.80
2019-03-01T11:02:43.235Z,102.80
2019-03-01T11:03:43.220Z,100.30
2019-03-01T11:04:43.206Z,102.10
2019-03-01T11:05:43.253Z,100.80
2019-03-01T11:06:43.213Z,100.80
2019-03-01T11:07:43.255Z,101.80
2019-03-01T11:08:43.182Z,99.70
2019-03-01T11:09:43.149Z,105.10
2019-03-01T11:10:43.142Z,99.20
2019-03-01T11:11:43.812Z,102.20
2019-03-01T11:12:43.173Z,99.90
2019-03-01T11:13:43.109Z,104.20
2019-03-01T11:14:43.109Z,95.80
2019-03-01T11:15:43.108Z,94.00
2019-03-01T11:16:43.079Z,95.30
2019-03-01T11:17:43.117Z,94.90
2019-03-01T11:18:43.122Z,96.50
2019-03-01T11:19:43.658Z,99.50
2019-03-01T11:20:43.060Z,101.40
2019-03-01T11:21:43.053Z,97.60
2019-03-01T11:22:43.125Z,101.20
2019-03-01T11:23:43.083Z,100.90
2019-03-01T11:24:43.011Z,93.80
2019-03-01T11:25:42.983Z,99.50
2019-03-01T11:26:43.066Z,104.50
2019-03-01T11:27:43.012Z,106.10
2019-03-01T11:28:43.053Z,101.30
2019-03-01T11:29:42.981Z,99.80
2019-03-01T11:30:42.958Z,102.00
2019-03-01T11:31:42.935Z,107.00
2019-03-01T11:32:42.923Z,99.30
2019-03-01T11:33:42.960Z,103.40
2019-03-01T11:34:42.915Z,97.90
2019-03-01T11:35:42.887Z,90.60
2019-03-01T11:36:42.926Z,95.80
2019-03-01T11:37:42.858Z,93.80
2019-03-01T11:38:42.861Z,93.50
2019-03-01T11:39:42.861Z,90.20
2019-03-01T11:40:42.841Z,94.20
2019-03-01T11:41:42.817Z,87.20
2019-03-01T11:42:42.806Z,85.80
2019-03-01T11:43:42.801Z,91.00
2019-03-01T11:44:42.827Z,90.80
2019-03-01T11:45:42.898Z,87.00
2019-03-01T11:46:42.801Z,83.50
2019-03-01T11:47:42.751Z,85.30
2019-03-01T11:48:42.765Z,82.50
2019-03-01T11:49:42.773Z,85.70
2019-03-01T11:50:42.785Z,86.00
2019-03-01T11:51:43.661Z,84.40
2019-03-01T11:52:42.724Z,79.70
2019-03-01T11:53:42.706Z,82.80
2019-03-01T11:54:42.717Z,81.30
2019-03-01T11:55:42.925Z,79.90
2019-03-01T11:56:42.700Z,77.20
2019-03-01T11:57:42.674Z,78.90
2019-03-01T11:58:42.764Z,78.10
2019-03-01T11:59:42.656Z,75.40
2019-03-01T12:00:51.748Z,73.90
2019-03-01T12:01:43.667Z,72.40
2019-03-01T12:02:42.628Z,69.90
2019-03-01T12:03:42.612Z,74.40
2019-03-01T12:04:42.622Z,75.60
2019-03-01T12:05:43.164Z,73.40
2019-03-01T12:06:42.596Z,73.20
2019-03-01T12:07:42.611Z,77.20
2019-03-01T12:08:42.576Z,72.00
2019-03-01T12:09:42.551Z,72.90
2019-03-01T12:10:43.194Z,70.30
2019-03-01T12:11:42.547Z,70.40
2019-03-01T12:12:42.547Z,73.10
2019-03-01T12:13:43.273Z,70.10
2019-03-01T12:14:43.280Z,73.80
2019-03-01T12:15:42.488Z,70.40
2019-03-01T12:16:42.454Z,70.00
2019-03-01T12:17:42.481Z,73.40
2019-03-01T12:18:42.471Z,70.70
2019-03-01T12:19:42.476Z,72.60
2019-03-01T12:20:42.480Z,71.10
2019-03-01T12:21:42.536Z,68.30
2019-03-01T12:22:42.436Z,71.80
2019-03-01T12:23:42.421Z,66.50
2019-03-01T12:24:42.362Z,69.20
2019-03-01T12:25:42.366Z,66.60
2019-03-01T12:26:42.385Z,65.90
2019-03-01T12:27:42.342Z,65.20
2019-03-01T12:28:42.351Z,65.80
2019-03-01T12:29:42.788Z,62.50
2019-03-01T12:30:42.338Z,69.60
2019-03-01T12:31:42.324Z,63.50
2019-03-01T12:32:42.339Z,61.20
2019-03-01T12:33:42.281Z,64.20
2019-03-01T12:34:42.333Z,63.30
2019-03-01T12:35:42.289Z,61.20
2019-03-01T12:36:42.248Z,62.50
2019-03-01T12:37:42.253Z,59.20
2019-03-01T12:38:42.247Z,59.30
2019-03-01T12:39:42.255Z,50.70
2019-03-01T12:40:42.223Z,58.60
2019-03-01T12:41:42.219Z,52.90
2019-03-01T12:42:42.185Z,52.30
2019-03-01T12:43:42.169Z,55.30
2019-03-01T12:44:42.171Z,51.40